Wawanesa, Canada
Current Conditions -  °F | °C
As of 3:00 AM on Friday 24 Oct 2014 (Local Time) from CYBR Reporting Station
Broken Clouds Broken Clouds  
Wind Chill: 36°   Ceiling: 24000
Heat Index: 41°   Visibility: 15mi
Dew Point: 36°   Wind: 7mph
Humidity: 81%   Direction: 250°WSW
Pressure: 29.7"   Gusts: NA
Location:  49.52°N, 99.68°W
Report Text: CYBR 240800Z 25006KT 15SM SCT160 BKN240 05/02 A2970 RMK AC4CI3 SLP068
Loading
Personal Weather Stations






























Interactive Weather Map
Tropical Storm Tracking
New forecast layout! Learn more

10-Day Weather Forecast

Advertisements
Track Severe Weather on mobile